Latest Weather Observations for Hay Point

IDQ60801

Issued at 8:22 am EST Monday 3 October 2022 (issued every 10 minutes, with the page automatically refreshed every 10 minutes)

About weather observations | Map of weather stations | Latest weather observations for QLD | Other Formats
Station Details ID: 033317 Name: HAY POINT Lat: -21.29 Lon: 149.30 Height: 7.0 m
Data from the previous 72 hours. | See also: Recent months for locations in Queensland
Date/Time
EST
Temp
°C
App
Temp
°C
Dew
Point
°C
Rel
Hum
%
Delta-T
°C
Wind Press
QNH
hPa
Press
MSL
hPa
Rain since
9am
mm
Dir  Spd
km/h
Gust
km/h
Spd
kts
Gust
kts
03/08:00am - - - - - E 24 26 13 14 - - -
03/07:30am - - - - - ENE 28 32 15 17 - - -
03/07:00am - - - - - ENE 24 28 13 15 - - -
03/06:30am - - - - - ENE 26 30 14 16 - - -
03/06:00am - - - - - ENE 26 28 14 15 - - -
03/05:30am - - - - - E 26 32 14 17 - - -
03/05:00am - - - - - ENE 24 28 13 15 - - -
03/04:30am - - - - - ENE 24 30 13 16 - - -
03/04:00am - - - - - ENE 26 32 14 17 - - -
03/03:30am - - - - - ENE 24 28 13 15 - - -
03/03:00am - - - - - ENE 24 26 13 14 - - -
03/02:30am - - - - - ENE 20 24 11 13 - - -
03/02:00am - - - - - NE 20 24 11 13 - - -
03/01:30am - - - - - NE 20 24 11 13 - - -
03/01:00am - - - - - NNE 17 22 9 12 - - -
03/12:30am - - - - - NNE 17 20 9 11 - - -
03/12:00am - - - - - N 17 19 9 10 - - -
 
Date/Time
EST
Temp
°C
App
Temp
°C
Dew
Point
°C
Rel
Hum
%
Delta-T
°C
Wind Press
QNH
hPa
Press
MSL
hPa
Rain since
9am
mm
Dir  Spd
km/h
Gust
km/h
Spd
kts
Gust
kts
02/11:30pm - - - - - N 19 20 10 11 - - -
02/11:00pm - - - - - N 20 24 11 13 - - -
02/10:30pm - - - - - N 20 24 11 13 - - -
02/10:00pm - - - - - NNE 20 26 11 14 - - -
02/09:30pm - - - - - NNE 20 22 11 12 - - -
02/09:00pm - - - - - NNE 20 24 11 13 - - -
02/08:30pm - - - - - NNE 20 26 11 14 - - -
02/08:00pm - - - - - NNE 19 22 10 12 - - -
02/07:30pm - - - - - NNE 19 22 10 12 - - -
02/07:00pm - - - - - NE 24 26 13 14 - - -
02/06:30pm - - - - - NE 20 26 11 14 - - -
02/06:00pm - - - - - NE 22 26 12 14 - - -
02/05:30pm - - - - - NE 22 26 12 14 - - -
02/05:00pm - - - - - NE 20 26 11 14 - - -
02/04:30pm - - - - - NE 22 26 12 14 - - -
02/04:00pm - - - - - NE 19 22 10 12 - - -
02/03:30pm - - - - - NE 20 26 11 14 - - -
02/03:00pm - - - - - NE 26 32 14 17 - - -
02/02:30pm - - - - - NE 24 28 13 15 - - -
02/02:00pm - - - - - NE 24 28 13 15 - - -
02/01:30pm - - - - - NE 22 28 12 15 - - -
02/01:00pm - - - - - NE 22 26 12 14 - - -
02/12:30pm - - - - - NE 19 24 10 13 - - -
02/12:00pm - - - - - NE 19 22 10 12 - - -
02/11:30am - - - - - NE 17 20 9 11 - - -
02/11:00am - - - - - NE 17 20 9 11 - - -
02/10:30am - - - - - NE 17 20 9 11 - - -
02/10:00am - - - - - NE 15 17 8 9 - - -
02/09:30am - - - - - SE 9 11 5 6 - - -
02/09:00am - - - - - ESE 7 9 4 5 - - -
02/08:30am - - - - - SE 7 9 4 5 - - -
02/08:00am - - - - - SSE 9 13 5 7 - - -
02/07:30am - - - - - SSE 9 9 5 5 - - -
02/07:00am - - - - - S 9 11 5 6 - - -
02/06:30am - - - - - SW 9 11 5 6 - - -
02/06:00am - - - - - SW 7 9 4 5 - - -
02/05:30am - - - - - WSW 9 11 5 6 - - -
02/05:00am - - - - - WSW 11 13 6 7 - - -
02/04:30am - - - - - SW 7 9 4 5 - - -
02/04:00am - - - - - W 9 11 5 6 - - -
02/03:30am - - - - - WSW 9 11 5 6 - - -
02/03:00am - - - - - W 11 13 6 7 - - -
02/02:30am - - - - - W 11 13 6 7 - - -
02/02:00am - - - - - W 11 13 6 7 - - -
02/01:30am - - - - - W 9 11 5 6 - - -
02/01:00am - - - - - W 9 11 5 6 - - -
02/12:30am - - - - - NNE 13 17 7 9 - - -
02/12:00am - - - - - NNE 13 15 7 8 - - -
 
Date/Time
EST
Temp
°C
App
Temp
°C
Dew
Point
°C
Rel
Hum
%
Delta-T
°C
Wind Press
QNH
hPa
Press
MSL
hPa
Rain since
9am
mm
Dir  Spd
km/h
Gust
km/h
Spd
kts
Gust
kts
01/11:30pm - - - - - NE 13 17 7 9 - - -
01/11:00pm - - - - - NE 15 19 8 10 - - -
01/10:30pm - - - - - NE 15 17 8 9 - - -
01/10:00pm - - - - - NE 15 17 8 9 - - -
01/09:30pm - - - - - NE 17 19 9 10 - - -
01/09:00pm - - - - - ENE 15 19 8 10 - - -
01/08:30pm - - - - - ENE 13 17 7 9 - - -
01/08:00pm - - - - - ENE 15 19 8 10 - - -
01/07:30pm - - - - - E 15 19 8 10 - - -
01/07:00pm - - - - - E 13 19 7 10 - - -
01/06:30pm - - - - - E 13 17 7 9 - - -
01/06:00pm - - - - - ENE 13 17 7 9 - - -
01/05:30pm - - - - - E 13 19 7 10 - - -
01/05:00pm - - - - - ENE 13 17 7 9 - - -
01/04:30pm - - - - - ENE 13 17 7 9 - - -
01/04:00pm - - - - - ENE 13 15 7 8 - - -
01/03:30pm - - - - - E 13 19 7 10 - - -
01/03:00pm - - - - - E 13 17 7 9 - - -
01/02:30pm - - - - - E 13 17 7 9 - - -
01/02:00pm - - - - - E 13 19 7 10 - - -
01/01:30pm - - - - - E 15 19 8 10 - - -
01/01:00pm - - - - - ESE 15 19 8 10 - - -
01/12:30pm - - - - - ESE 13 20 7 11 - - -
01/12:00pm - - - - - ESE 13 17 7 9 - - -
01/11:30am - - - - - E 11 15 6 8 - - -
01/11:00am - - - - - SE 11 15 6 8 - - -
01/10:30am - - - - - SE 11 19 6 10 - - -
01/10:00am - - - - - SE 9 13 5 7 - - -
01/09:30am - - - - - SE 9 13 5 7 - - -
01/09:00am - - - - - SE 9 11 5 6 - - -
01/08:30am - - - - - S 9 11 5 6 - - -
01/08:00am - - - - - SSW 13 15 7 8 - - -
01/07:30am - - - - - SW 9 11 5 6 - - -
01/07:00am - - - - - SW 9 11 5 6 - - -
01/06:30am - - - - - SSW 11 13 6 7 - - -
01/06:00am - - - - - S 11 13 6 7 - - -
01/05:30am - - - - - SSW 11 13 6 7 - - -
01/05:00am - - - - - SSW 13 15 7 8 - - -
01/04:30am - - - - - SSW 13 15 7 8 - - -
01/04:00am - - - - - SW 15 17 8 9 - - -
01/03:30am - - - - - SSW 15 19 8 10 - - -
01/03:00am - - - - - SSW 11 11 6 6 - - -
01/02:30am - - - - - SSW 7 11 4 6 - - -
01/02:00am - - - - - SW 9 9 5 5 - - -
01/01:30am - - - - - SW 9 13 5 7 - - -
01/01:00am - - - - - SW 9 11 5 6 - - -
01/12:30am - - - - - SSW 9 11 5 6 - - -
01/12:00am - - - - - SSW 9 11 5 6 - - -
 
Date/Time
EST
Temp
°C
App
Temp
°C
Dew
Point
°C
Rel
Hum
%
Delta-T
°C
Wind Press
QNH
hPa
Press
MSL
hPa
Rain since
9am
mm
Dir  Spd
km/h
Gust
km/h
Spd
kts
Gust
kts
30/11:30pm - - - - - WSW 11 13 6 7 - - -
30/11:00pm - - - - - SW 13 13 7 7 - - -
30/10:30pm - - - - - W 9 11 5 6 - - -
30/10:00pm - - - - - SW 11 13 6 7 - - -
30/09:30pm - - - - - WSW 7 9 4 5 - - -
30/09:00pm - - - - - WSW 7 9 4 5 - - -
30/08:30pm - - - - - SW 7 9 4 5 - - -
30/08:00pm - - - - - E 9 11 5 6 - - -
30/07:30pm - - - - - ENE 13 15 7 8 - - -
30/07:00pm - - - - - NE 11 15 6 8 - - -
30/06:30pm - - - - - NE 11 13 6 7 - - -
30/06:00pm - - - - - NE 15 19 8 10 - - -
30/05:30pm - - - - - NE 15 19 8 10 - - -
30/05:00pm - - - - - NE 15 19 8 10 - - -
30/04:30pm - - - - - ENE 15 19 8 10 - - -
30/04:00pm - - - - - E 19 22 10 12 - - -
30/03:30pm - - - - - E 22 28 12 15 - - -
30/03:00pm - - - - - E 26 30 14 16 - - -
30/02:30pm - - - - - E 24 28 13 15 - - -
30/02:00pm - - - - - E 30 35 16 19 - - -
30/01:30pm - - - - - E 28 32 15 17 - - -
30/01:00pm - - - - - ESE 28 32 15 17 - - -
30/12:30pm - - - - - ESE 26 30 14 16 - - -
30/12:00pm - - - - - ESE 26 30 14 16 - - -
30/11:30am - - - - - SE 22 30 12 16 - - -
30/11:00am - - - - - SE 28 33 15 18 - - -
30/10:30am - - - - - SSE 32 39 17 21 - - -
30/10:00am - - - - - SSE 30 37 16 20 - - -
30/09:30am - - - - - S 24 32 13 17 - - -
30/09:00am - - - - - S 24 32 13 17 - - -
30/08:30am - - - - - S 26 33 14 18 - - -

Other formats

Comma delimited format used in spreadsheet applications
http://www.bom.gov.au/fwo/IDQ60801/IDQ60801.99367.axf

JavaScript Object Notation format (JSON) in row-major order
http://www.bom.gov.au/fwo/IDQ60801/IDQ60801.99367.json

Data quality

Most of these data are generated automatically and are frequently updated. Quality checks on data are not normally performed. It is possible for incorrect values to appear. Refer to information at About Latest Weather Observations and please check the disclaimer before using these data.